M I D A S
Marine Information and Data Acquisition System
Tripno 1036 of the Zeeleeuw from 2006-02-24 09:06:28 to 2006-02-24 12:00:59
Back to CruiseResearch ActivitiesStationsMapUnderway DataData graphs

EquipmentUnitsComment
TimeDGPSUTC
LatitudeDGPSDM.mWGS84
LongitudeDGPSDM.mWGS84
TemperatureSBE03/SBE38deg celciusITS90
ConductivitySBE21S/mITS90
SalinitySBE21 Practical Salinity Units
ChlorophylAChelsea fluorimeterg/lCalibrated in Aceton
Missing or incorrect values are displayed as -999
Sea surface data collected by the RV Zeeleeuw from 2006-02-24 07:40:43 to 2006-02-24 12:14:37
Time Latitude Longitude Temperature Conductivity Salinity ChlorophylA
2006-02-24 07:41:48 51°13.611 2°56.042 -999 0.053251 0.331783 1.645828
2006-02-24 07:42:49 51°13.644 2°55.926 -999 0.053251 0.331755 1.645828
2006-02-24 07:43:48 51°13.68 2°55.803 -999 0.053251 0.331734 1.645828
2006-02-24 07:44:49 51°13.695 2°55.744 -999 0.053251 0.331713 1.645828
2006-02-24 07:45:48 51°13.701 2°55.733 -999 0.053251 0.331685 1.679537
2006-02-24 07:46:48 51°13.746 2°55.709 -999 0.053353 0.332333 1.679537
2006-02-24 07:47:48 51°13.825 2°55.637 -999 0.053353 0.332284 1.679537
2006-02-24 07:48:49 51°13.929 2°55.564 -999 0.053353 0.332305 1.679537
2006-02-24 07:49:48 51°14.039 2°55.488 -999 0.053353 0.332312 1.679537
2006-02-24 07:50:48 51°14.157 2°55.398 -999 0.053353 0.332305 1.679537
2006-02-24 07:51:48 51°14.258 2°55.264 -999 0.053353 0.332312 1.679537
2006-02-24 07:52:48 51°14.341 2°55.098 -999 0.053353 0.332298 1.679537
2006-02-24 07:53:48 51°14.418 2°54.909 -999 0.053353 0.332305 1.679537
2006-02-24 07:54:48 51°14.435 2°54.629 -999 0.053353 0.332298 1.679537
2006-02-24 07:55:48 51°14.375 2°54.328 -999 0.053353 0.332291 1.679537
2006-02-24 07:56:48 51°14.271 2°54.051 -999 0.053353 0.332277 1.713247
2006-02-24 07:57:48 51°14.172 2°53.774 -999 0.053353 0.332263 1.713247
2006-02-24 07:58:48 51°14.067 2°53.499 -999 0.053353 0.332256 1.713247
2006-02-24 07:59:48 51°13.964 2°53.222 -999 0.053353 0.332235 1.679537
2006-02-24 08:00:48 51°13.863 2°52.939 -999 0.053353 0.332207 1.679537
2006-02-24 08:01:48 51°13.764 2°52.656 -999 0.053353 0.3322 1.713247
2006-02-24 08:02:48 51°13.665 2°52.371 -999 0.053353 0.332179 1.713247
2006-02-24 08:03:48 51°13.562 2°52.089 -999 0.053353 0.332165 1.679537
2006-02-24 08:04:48 51°13.459 2°51.81 -999 0.053353 0.332151 1.713247
2006-02-24 08:05:48 51°13.355 2°51.533 -999 0.053353 0.332123 1.713247
2006-02-24 08:06:48 51°13.251 2°51.253 -999 0.053353 0.332109 1.713247
2006-02-24 08:07:48 51°13.149 2°50.972 -999 0.053353 0.332088 1.713247
2006-02-24 08:08:48 51°13.044 2°50.694 -999 0.053353 0.332081 1.713247
2006-02-24 08:09:48 51°12.942 2°50.413 -999 0.053353 0.33206 1.713247
2006-02-24 08:10:48 51°12.842 2°50.13 -999 0.053353 0.332046 1.713247
2006-02-24 08:11:48 51°12.747 2°49.841 -999 0.053353 0.332032 1.713247
2006-02-24 08:12:48 51°12.653 2°49.552 -999 0.053353 0.332004 1.713247
2006-02-24 08:13:48 51°12.558 2°49.265 -999 0.053353 0.331997 1.713247
2006-02-24 08:14:48 51°12.462 2°48.983 -999 0.053353 0.331983 1.713247
2006-02-24 08:15:48 51°12.368 2°48.696 -999 0.053353 0.331983 1.746956
2006-02-24 08:16:48 51°12.273 2°48.411 -999 0.053353 0.331983 1.713247
2006-02-24 08:17:48 51°12.179 2°48.124 -999 0.053456 0.332631 1.713247
2006-02-24 08:18:48 51°12.087 2°47.836 -999 0.053353 0.331963 1.713247
2006-02-24 08:19:48 51°11.994 2°47.546 -999 0.053353 0.331956 1.713247
2006-02-24 08:20:48 51°11.9 2°47.257 -999 0.053353 0.331935 1.713247
2006-02-24 08:21:48 51°11.808 2°46.966 -999 0.053456 0.332596 1.713247
2006-02-24 08:22:48 51°11.714 2°46.678 -999 0.053456 0.332596 1.713247
2006-02-24 08:23:48 51°11.621 2°46.39 -999 0.053353 0.331949 1.713247
2006-02-24 08:24:48 51°11.529 2°46.095 -999 0.053456 0.332603 1.746956
2006-02-24 08:25:48 51°11.438 2°45.8 -999 0.053456 0.332617 1.713247
2006-02-24 08:26:48 51°11.346 2°45.505 -999 0.053456 0.332596 1.713247
2006-02-24 08:27:48 51°11.253 2°45.213 -999 0.053456 0.332617 1.746956
2006-02-24 08:28:48 51°11.162 2°44.92 -999 0.053456 0.332603 1.713247
2006-02-24 08:29:48 51°11.087 2°44.613 -999 0.053456 0.33261 1.746956
2006-02-24 08:30:48 51°11.01 2°44.309 -999 0.053456 0.332631 1.746956
2006-02-24 08:31:48 51°10.933 2°44.002 -999 0.053456 0.332589 1.746956
2006-02-24 08:32:48 51°10.851 2°43.703 -999 0.053456 0.33261 1.713247
2006-02-24 08:33:48 51°10.773 2°43.402 -999 0.053456 0.332582 1.746956
2006-02-24 08:34:48 51°10.689 2°43.105 -999 0.053456 0.332575 1.713247
2006-02-24 08:35:48 51°10.61 2°42.8 -999 0.053456 0.332568 1.746956
2006-02-24 08:36:48 51°10.535 2°42.498 -999 0.053456 0.332575 1.713247
2006-02-24 08:37:48 51°10.454 2°42.199 -999 0.053456 0.332568 1.713247
2006-02-24 08:38:48 51°10.376 2°41.9 -999 0.053456 0.332554 1.746956
2006-02-24 08:39:48 51°10.298 2°41.604 -999 0.053456 0.332554 1.746956
2006-02-24 08:40:48 51°10.218 2°41.307 -999 0.053456 0.33254 1.746956
2006-02-24 08:41:48 51°10.136 2°41.017 -999 0.053456 0.332533 1.746956
2006-02-24 08:42:48 51°10.063 2°40.717 -999 0.053456 0.332526 1.746956
2006-02-24 08:43:48 51°9.996 2°40.409 -999 0.053456 0.332519 1.713247
2006-02-24 08:44:48 51°9.926 2°40.104 -999 0.053456 0.332512 1.746956
2006-02-24 08:45:48 51°9.857 2°39.803 -999 0.053456 0.332526 1.713247
2006-02-24 08:46:48 51°9.79 2°39.497 -999 0.053456 0.332498 1.713247
2006-02-24 08:47:48 51°9.722 2°39.189 -999 0.053456 0.332505 1.713247
2006-02-24 08:48:48 51°9.649 2°38.891 -999 0.053456 0.332491 1.713247
2006-02-24 08:49:48 51°9.576 2°38.594 -999 0.053456 0.332498 1.746956
2006-02-24 08:50:48 51°9.507 2°38.289 -999 0.053456 0.332484 1.713247
2006-02-24 08:51:48 51°9.438 2°37.985 -999 0.053456 0.332491 1.746956
2006-02-24 08:52:48 51°9.371 2°37.68 -999 0.053456 0.33247 1.713247
2006-02-24 08:53:48 51°9.306 2°37.371 -999 0.053456 0.33247 1.746956
2006-02-24 08:54:48 51°9.242 2°37.064 -999 0.053456 0.332456 1.746956
2006-02-24 08:55:48 51°9.176 2°36.761 -999 0.053456 0.332449 1.746956
2006-02-24 08:56:48 51°9.108 2°36.46 -999 0.053456 0.332442 1.746956
2006-02-24 08:57:48 51°9.044 2°36.154 -999 0.053456 0.332435 1.746956
2006-02-24 08:58:48 51°8.976 2°35.853 -999 0.053456 0.332421 1.746956
2006-02-24 08:59:48 51°8.911 2°35.552 -999 0.053456 0.332407 1.746956
2006-02-24 09:00:48 51°8.848 2°35.247 -999 0.053456 0.332379 1.746956
2006-02-24 09:01:48 51°8.783 2°34.942 -999 0.053456 0.332393 1.746956
2006-02-24 09:02:48 51°8.714 2°34.64 -999 0.053456 0.332372 1.746956
2006-02-24 09:03:48 51°8.635 2°34.345 -999 0.053456 0.332351 1.746956
2006-02-24 09:04:48 51°8.526 2°34.073 -999 0.053456 0.332351 1.746956
2006-02-24 09:05:48 51°8.421 2°33.799 -999 0.053456 0.33233 1.713247
2006-02-24 09:06:48 51°8.312 2°33.525 -999 0.053456 0.332316 1.746956
2006-02-24 09:07:48 51°8.203 2°33.253 -999 0.053456 0.332309 1.746956
2006-02-24 09:08:48 51°8.088 2°32.985 -999 0.053456 0.332288 1.713247
2006-02-24 09:09:48 51°7.974 2°32.719 -999 0.053456 0.332281 1.746956
2006-02-24 09:10:48 51°7.861 2°32.451 -999 0.053456 0.332288 1.746956
2006-02-24 09:11:48 51°7.752 2°32.181 -999 0.053456 0.332261 1.746956
2006-02-24 09:12:48 51°7.641 2°31.91 -999 0.053456 0.332274 1.746956
2006-02-24 09:13:48 51°7.529 2°31.639 -999 0.053456 0.332254 1.746956
2006-02-24 09:14:48 51°7.419 2°31.363 -999 0.053456 0.33224 1.746956
2006-02-24 09:15:48 51°7.307 2°31.086 -999 0.053559 0.332907 1.746956
2006-02-24 09:16:48 51°7.191 2°30.804 -999 0.053456 0.332261 1.746956
2006-02-24 09:17:48 51°7.075 2°30.53 -999 0.053456 0.332268 1.746956
2006-02-24 09:18:48 51°7.033 2°30.222 -999 0.053559 0.332935 1.746956
2006-02-24 09:19:48 51°7.185 2°30.023 -999 0.053559 0.332963 1.848084
2006-02-24 09:20:48 51°7.376 2°30.161 -999 0.053456 0.332295 1.814375
2006-02-24 09:21:48 51°7.542 2°30.407 -999 0.053456 0.332323 1.780665
2006-02-24 09:22:48 51°7.704 2°30.661 -999 0.053456 0.3324 1.746956
2006-02-24 09:23:48 51°7.867 2°30.913 -999 0.053456 0.332512 1.746956
2006-02-24 09:24:48 51°8.03 2°31.164 -999 0.053456 0.332666 1.780665
2006-02-24 09:25:48 51°8.193 2°31.417 -999 0.053456 0.332827 1.746956
2006-02-24 09:26:48 51°8.356 2°31.673 -999 0.053353 0.332347 1.780665
2006-02-24 09:27:48 51°8.516 2°31.934 -999 0.053353 0.332529 1.746956
2006-02-24 09:28:48 51°8.671 2°32.199 -999 0.053353 0.332683 1.746956
2006-02-24 09:29:48 51°8.825 2°32.457 -999 0.053251 0.332126 1.746956
2006-02-24 09:30:48 51°8.978 2°32.715 -999 0.053251 0.332266 1.746956
2006-02-24 09:31:48 51°9.131 2°32.972 -999 0.053148 0.33182 1.746956
2006-02-24 09:32:48 51°9.282 2°33.229 -999 0.053148 0.332002 1.780665
2006-02-24 09:33:48 51°9.434 2°33.486 -999 0.053045 0.331604 1.746956
2006-02-24 09:34:48 51°9.586 2°33.744 -999 0.053045 0.331899 1.746956
2006-02-24 09:35:48 51°9.739 2°34.002 -999 0.053045 0.332237 1.746956
2006-02-24 09:36:48 51°9.891 2°34.257 -999 0.052942 0.331867 1.746956
2006-02-24 09:37:48 51°10.043 2°34.51 -999 0.052942 0.332177 1.746956
2006-02-24 09:38:48 51°10.197 2°34.764 -999 0.052942 0.332474 1.746956
2006-02-24 09:39:48 51°10.35 2°35.02 -999 0.052942 0.332793 1.780665
2006-02-24 09:40:48 51°10.503 2°35.271 -999 0.052839 0.332444 1.746956
2006-02-24 09:41:48 51°10.654 2°35.519 -999 0.052736 0.332094 1.746956
2006-02-24 09:42:48 51°10.825 2°35.734 -999 0.052736 0.332434 1.746956
2006-02-24 09:43:48 51°10.998 2°35.95 -999 0.052736 0.332797 1.746956
2006-02-24 09:44:48 51°11.171 2°36.166 -999 0.052633 0.33249 1.780665
2006-02-24 09:45:48 51°11.343 2°36.38 -999 0.052633 0.332861 1.746956
2006-02-24 09:46:48 51°11.519 2°36.591 -999 0.05253 0.332589 1.780665
2006-02-24 09:47:48 51°11.694 2°36.801 -999 0.05253 0.33299 1.746956
2006-02-24 09:48:48 51°11.873 2°37.001 -999 0.052428 0.33266 1.746956
2006-02-24 09:49:48 51°12.051 2°37.202 -999 0.052428 0.333098 1.746956
2006-02-24 09:50:48 51°12.228 2°37.404 -999 0.052325 0.332768 1.746956
2006-02-24 09:51:48 51°12.407 2°37.601 -999 0.052222 0.332466 1.746956
2006-02-24 09:52:48 51°12.588 2°37.797 -999 0.052222 0.332848 1.746956
2006-02-24 09:53:48 51°12.769 2°37.998 -999 0.052119 0.33251 1.746956
2006-02-24 09:54:48 51°12.95 2°38.194 -999 0.052119 0.332857 1.746956
2006-02-24 09:55:48 51°13.129 2°38.393 -999 0.052016 0.332532 1.746956
2006-02-24 09:56:48 51°13.311 2°38.59 -999 0.052016 0.332858 1.746956
2006-02-24 09:57:48 51°13.488 2°38.79 -999 0.051913 0.332519 1.746956
2006-02-24 09:58:48 51°13.69 2°38.92 -999 0.051913 0.332868 1.713247
2006-02-24 09:59:48 51°13.899 2°39.033 -999 0.05181 0.332535 1.713247
2006-02-24 10:00:48 51°14.108 2°39.146 -999 0.05181 0.332856 1.713247
2006-02-24 10:01:48 51°14.319 2°39.264 -999 0.051707 0.332551 1.679537
2006-02-24 10:02:48 51°14.528 2°39.385 -999 0.051707 0.332895 1.679537
2006-02-24 10:03:48 51°14.736 2°39.503 -999 0.051605 0.332554 1.679537
2006-02-24 10:04:48 51°14.943 2°39.627 -999 0.051605 0.332884 1.679537
2006-02-24 10:05:48 51°15.152 2°39.75 -999 0.051502 0.33252 1.679537
2006-02-24 10:06:48 51°15.358 2°39.877 -999 0.051502 0.332836 1.645828
2006-02-24 10:07:48 51°15.567 2°40.003 -999 0.051399 0.332494 1.645828
2006-02-24 10:08:48 51°15.774 2°40.129 -999 0.051399 0.332825 1.612118
2006-02-24 10:09:48 51°15.981 2°40.259 -999 0.051399 0.333172 1.612118
2006-02-24 10:10:48 51°16.187 2°40.388 -999 0.051296 0.332851 1.612118
2006-02-24 10:11:48 51°16.392 2°40.516 -999 0.051296 0.333184 1.612118
2006-02-24 10:12:48 51°16.6 2°40.642 -999 0.051193 0.332834 1.578409
2006-02-24 10:13:48 51°16.804 2°40.769 -999 0.051193 0.333197 1.5447
2006-02-24 10:14:48 51°17.006 2°40.89 -999 0.05109 0.332817 1.5447
2006-02-24 10:15:48 51°17.212 2°41.017 -999 0.05109 0.333166 1.5447
2006-02-24 10:16:48 51°17.419 2°41.145 -999 0.050987 0.332852 1.51099
2006-02-24 10:17:48 51°17.568 2°41.383 -999 0.050987 0.33315 1.51099
2006-02-24 10:18:49 51°17.611 2°41.72 -999 0.050884 0.332813 1.51099
2006-02-24 10:19:48 51°17.626 2°42.056 -999 0.050884 0.333194 1.51099
2006-02-24 10:20:48 51°17.641 2°42.4 -999 0.050781 0.332834 1.477281
2006-02-24 10:21:49 51°17.656 2°42.751 -999 0.050781 0.333119 1.477281
2006-02-24 10:22:48 51°17.666 2°43.088 -999 0.050679 0.332683 1.443571
2006-02-24 10:23:49 51°17.675 2°43.432 -999 0.050679 0.332931 1.443571
2006-02-24 10:24:48 51°17.679 2°43.761 -999 0.050679 0.333194 1.409862
2006-02-24 10:25:48 51°17.598 2°44.05 -999 0.050576 0.33269 1.409862
2006-02-24 10:26:48 51°17.413 2°44.155 -999 0.050576 0.332931 1.409862
2006-02-24 10:27:48 51°17.212 2°44.118 -999 0.050576 0.333149 1.376153
2006-02-24 10:28:48 51°17.012 2°44.047 -999 0.050473 0.332629 1.376153
2006-02-24 10:29:48 51°16.817 2°43.97 -999 0.050473 0.332818 1.376153
2006-02-24 10:30:48 51°16.617 2°43.905 -999 0.050473 0.332991 1.342443
2006-02-24 10:31:48 51°16.42 2°43.829 -999 0.05037 0.33244 1.376153
2006-02-24 10:32:48 51°16.222 2°43.764 -999 0.05037 0.332629 1.342443
2006-02-24 10:33:48 51°16.028 2°43.682 -999 0.05037 0.332818 1.342443
2006-02-24 10:34:49 51°15.831 2°43.604 -999 0.05037 0.332984 1.342443
2006-02-24 10:35:48 51°15.64 2°43.537 -999 0.050267 0.332485 1.308734
2006-02-24 10:36:48 51°15.445 2°43.471 -999 0.050267 0.332659 1.308734
2006-02-24 10:37:48 51°15.245 2°43.405 -999 0.050267 0.332826 1.308734
2006-02-24 10:38:48 51°15.046 2°43.343 -999 0.050267 0.333016 1.308734
2006-02-24 10:39:48 51°14.847 2°43.276 -999 0.050164 0.332493 1.308734
2006-02-24 10:40:48 51°14.646 2°43.214 -999 0.050164 0.332645 1.308734
2006-02-24 10:41:48 51°14.446 2°43.143 -999 0.050164 0.332835 1.275024
2006-02-24 10:42:48 51°14.248 2°43.071 -999 0.050164 0.332979 1.275024
2006-02-24 10:43:49 51°14.046 2°42.995 -999 0.050164 0.333147 1.275024
2006-02-24 10:44:48 51°13.852 2°43.026 -999 0.050061 0.332615 1.275024
2006-02-24 10:45:48 51°13.75 2°43.287 -999 0.050061 0.332737 1.275024
2006-02-24 10:46:48 51°13.751 2°43.62 -999 0.050061 0.332867 1.241315
2006-02-24 10:47:48 51°13.748 2°43.955 -999 0.050061 0.33305 1.241315
2006-02-24 10:48:48 51°13.743 2°44.291 -999 0.049958 0.332479 1.241315
2006-02-24 10:49:48 51°13.741 2°44.631 -999 0.049958 0.332647 1.241315
2006-02-24 10:50:48 51°13.779 2°44.962 -999 0.049958 0.33283 1.241315
2006-02-24 10:51:49 51°13.863 2°45.281 -999 0.049958 0.332991 1.207606
2006-02-24 10:52:48 51°13.952 2°45.588 -999 0.049958 0.333183 1.207606
2006-02-24 10:53:49 51°14.043 2°45.906 -999 0.049856 0.332664 1.207606
2006-02-24 10:54:48 51°14.134 2°46.216 -999 0.049856 0.332902 1.207606
2006-02-24 10:55:49 51°14.227 2°46.536 -999 0.049856 0.333147 1.173896
2006-02-24 10:56:48 51°14.314 2°46.846 -999 0.049753 0.332689 1.173896
2006-02-24 10:57:48 51°14.435 2°47.114 -999 0.049753 0.332935 1.140187
2006-02-24 10:58:48 51°14.64 2°47.125 -999 0.049753 0.333182 1.140187
2006-02-24 10:59:48 51°14.842 2°47.002 -999 0.04965 0.3328 1.140187
2006-02-24 11:00:48 51°15.041 2°46.862 -999 0.04965 0.333046 1.140187
2006-02-24 11:01:48 51°15.241 2°46.721 -999 0.04965 0.33327 1.140187
2006-02-24 11:02:49 51°15.448 2°46.579 -999 0.049547 0.332811 1.106477
2006-02-24 11:03:48 51°15.644 2°46.443 -999 0.049547 0.332981 1.106477
2006-02-24 11:04:48 51°15.843 2°46.309 -999 0.049547 0.33319 1.106477
2006-02-24 11:05:48 51°16.043 2°46.172 -999 0.049444 0.332644 1.106477
2006-02-24 11:06:48 51°16.243 2°46.037 -999 0.049444 0.332807 1.106477
2006-02-24 11:07:48 51°16.444 2°45.898 -999 0.049444 0.332969 1.106477
2006-02-24 11:08:48 51°16.647 2°45.76 -999 0.049341 0.3324 1.106477
2006-02-24 11:09:48 51°16.853 2°45.618 -999 0.049341 0.332562 1.106477
2006-02-24 11:10:48 51°17.055 2°45.476 -999 0.049341 0.332702 1.106477
2006-02-24 11:11:49 51°17.259 2°45.327 -999 0.049341 0.332834 1.106477
2006-02-24 11:12:48 51°17.457 2°45.185 -999 0.049238 0.332232 1.106477
2006-02-24 11:13:48 51°17.658 2°45.046 -999 0.049238 0.332356 1.106477
2006-02-24 11:14:48 51°17.864 2°44.913 -999 0.049238 0.332488 1.072768
2006-02-24 11:15:48 51°18.065 2°44.979 -999 0.049238 0.332628 1.106477
2006-02-24 11:16:48 51°18.189 2°45.248 -999 0.049238 0.332745 1.072768
2006-02-24 11:17:48 51°18.314 2°45.524 -999 0.049238 0.332917 1.072768
2006-02-24 11:18:49 51°18.44 2°45.805 -999 0.049135 0.332438 1.039059
2006-02-24 11:19:48 51°18.561 2°46.073 -999 0.049135 0.332664 1.039059
2006-02-24 11:20:48 51°18.678 2°46.353 -999 0.049135 0.332875 1.039059
2006-02-24 11:21:48 51°18.793 2°46.636 -999 0.049135 0.33318 1.039059
2006-02-24 11:22:48 51°18.906 2°46.921 -999 0.049032 0.332724 1.005349
2006-02-24 11:23:48 51°19.01 2°47.216 -999 0.049032 0.332998 1.039059
2006-02-24 11:24:48 51°19.115 2°47.509 -999 0.049032 0.333288 1.005349
2006-02-24 11:25:48 51°19.218 2°47.802 -999 0.04893 0.332855 1.005349
2006-02-24 11:26:48 51°19.32 2°48.092 -999 0.04893 0.333162 1.005349
2006-02-24 11:27:49 51°19.398 2°48.408 -999 0.04893 0.333461 1.005349
2006-02-24 11:28:48 51°19.326 2°48.7 -999 0.048827 0.333003 1.005349
2006-02-24 11:29:49 51°19.233 2°48.996 -999 0.048827 0.333366 0.97164
2006-02-24 11:30:48 51°19.132 2°49.268 -999 0.048724 0.332868 0.97164
2006-02-24 11:31:48 51°19.011 2°49.529 -999 0.048724 0.333097 0.97164
2006-02-24 11:32:48 51°18.881 2°49.775 -999 0.048724 0.333271 0.97164
2006-02-24 11:33:48 51°18.75 2°50.022 -999 0.048621 0.332693 0.93793
2006-02-24 11:34:48 51°18.623 2°50.275 -999 0.048621 0.332867 0.93793
2006-02-24 11:35:48 51°18.493 2°50.526 -999 0.048621 0.333049 0.93793
2006-02-24 11:36:48 51°18.366 2°50.781 -999 0.048518 0.332375 0.93793
2006-02-24 11:37:48 51°18.236 2°51.036 -999 0.048518 0.332525 0.93793
2006-02-24 11:38:48 51°18.107 2°51.291 -999 0.048518 0.332692 0.93793
2006-02-24 11:39:48 51°17.978 2°51.544 -999 0.048518 0.332763 0.93793
2006-02-24 11:40:48 51°17.842 2°51.789 -999 0.048518 0.332906 0.93793
2006-02-24 11:41:49 51°17.688 2°52.011 -999 0.048415 0.332286 0.93793
2006-02-24 11:42:48 51°17.523 2°52.194 -999 0.048415 0.332429 0.93793
2006-02-24 11:43:48 51°17.346 2°52.368 -999 0.048415 0.332548 0.93793
2006-02-24 11:44:48 51°17.163 2°52.522 -999 0.048415 0.332683 0.904221
2006-02-24 11:45:48 51°16.98 2°52.676 -999 0.048415 0.332835 0.904221
2006-02-24 11:46:48 51°16.799 2°52.831 -999 0.048415 0.332922 0.904221
2006-02-24 11:47:48 51°16.613 2°52.984 -999 0.048312 0.332341 0.904221
2006-02-24 11:48:48 51°16.428 2°53.139 -999 0.048312 0.33246 0.904221
2006-02-24 11:49:48 51°16.241 2°53.29 -999 0.048312 0.332659 0.904221
2006-02-24 11:50:48 51°16.055 2°53.443 -999 0.048312 0.332763 0.904221
2006-02-24 11:51:48 51°15.869 2°53.599 -999 0.048312 0.332867 0.904221
2006-02-24 11:52:48 51°15.68 2°53.751 -999 0.048312 0.333035 0.904221
2006-02-24 11:53:48 51°15.495 2°53.907 -999 0.048209 0.332412 0.904221
2006-02-24 11:54:48 51°15.338 2°54.024 -999 0.048209 0.332572 0.904221
2006-02-24 11:55:49 51°15.178 2°54.129 -999 0.048209 0.332699 0.904221
2006-02-24 11:56:48 51°15.001 2°54.263 -999 0.048209 0.332876 0.904221
2006-02-24 11:57:49 51°14.817 2°54.409 -999 0.048209 0.332988 0.904221
2006-02-24 11:58:48 51°14.65 2°54.581 -999 0.048107 0.332396 0.904221
2006-02-24 11:59:48 51°14.496 2°54.782 -999 0.048107 0.332516 0.904221
2006-02-24 12:00:48 51°14.369 2°55.027 -999 0.048107 0.332652 0.870512
2006-02-24 12:01:49 51°14.253 2°55.266 -999 0.048107 0.332764 0.904221
2006-02-24 12:02:49 51°14.141 2°55.398 -999 0.048004 0.332139 0.904221
2006-02-24 12:03:51 51°14.036 2°55.473 -999 0.048004 0.332244 0.870512
2006-02-24 12:04:52 51°13.924 2°55.555 -999 0.048004 0.332332 0.870512
2006-02-24 12:05:52 51°13.827 2°55.633 -999 0.048004 0.332428 0.870512
2006-02-24 12:06:52 51°13.759 2°55.702 -999 0.048004 0.332516 0.904221
2006-02-24 12:07:52 51°13.711 2°55.778 -999 0.048004 0.332605 0.870512
2006-02-24 12:08:52 51°13.672 2°55.855 -999 0.047901 0.331947 0.870512
2006-02-24 12:09:52 51°13.643 2°55.937 -999 0.047901 0.332019 0.870512
2006-02-24 12:10:52 51°13.622 2°56.008 -999 0.047901 0.332091 0.870512
2006-02-24 12:11:52 51°13.607 2°56.064 -999 0.047901 0.332155 0.870512
2006-02-24 12:12:52 51°13.602 2°56.076 -999 0.047901 0.33222 0.870512
2006-02-24 12:13:52 51°13.597 2°56.087 -999 0.047901 0.332292 0.870512